createdAt,value
2018-05-23T00:02:19.470Z,96.60
2018-05-23T00:04:47.824Z,96.50
2018-05-23T00:07:16.179Z,96.60
2018-05-23T00:09:45.436Z,96.60
2018-05-23T00:12:13.795Z,96.60
2018-05-23T00:14:42.128Z,97.50
2018-05-23T00:17:11.262Z,96.30
2018-05-23T00:19:39.611Z,96.20
2018-05-23T00:22:08.856Z,97.20
2018-05-23T00:24:37.202Z,96.90
2018-05-23T00:27:05.541Z,97.40
2018-05-23T00:29:34.763Z,97.00
2018-05-23T00:32:03.101Z,97.20
2018-05-23T00:34:31.450Z,97.40
2018-05-23T00:36:59.821Z,97.40
2018-05-23T00:39:28.170Z,97.00
2018-05-23T00:41:56.527Z,96.80
2018-05-23T00:44:25.792Z,97.30
2018-05-23T00:46:54.164Z,97.20
2018-05-23T00:49:22.523Z,96.80
2018-05-23T00:51:50.873Z,95.50
2018-05-23T00:54:19.235Z,93.90
2018-05-23T00:56:48.607Z,95.10
2018-05-23T00:59:16.963Z,95.10
2018-05-23T01:01:45.309Z,92.80
2018-05-23T01:04:13.663Z,92.70
2018-05-23T01:06:42.032Z,94.10
2018-05-23T01:09:10.437Z,92.70
2018-05-23T01:11:38.791Z,93.70
2018-05-23T01:14:07.155Z,92.30
2018-05-23T01:16:35.527Z,92.70
2018-05-23T01:19:03.934Z,93.50
2018-05-23T01:21:33.046Z,93.80
2018-05-23T01:24:01.390Z,93.80
2018-05-23T01:26:29.770Z,94.50
2018-05-23T01:28:58.146Z,93.00
2018-05-23T01:31:26.898Z,94.60
2018-05-23T01:33:55.243Z,94.40
2018-05-23T01:36:23.600Z,94.40
2018-05-23T01:38:52.724Z,94.90
2018-05-23T01:41:21.432Z,94.90
2018-05-23T01:43:49.800Z,93.10
2018-05-23T01:46:18.181Z,93.00
2018-05-23T01:48:58.373Z,93.90
2018-05-23T01:51:26.708Z,94.70
2018-05-23T01:53:55.071Z,94.20
2018-05-23T01:56:23.501Z,93.70
2018-05-23T01:58:51.834Z,94.70
2018-05-23T02:01:20.192Z,94.00
2018-05-23T02:03:49.340Z,95.10
2018-05-23T02:06:17.693Z,95.10
2018-05-23T02:08:46.058Z,94.50
2018-05-23T02:11:14.874Z,94.60
2018-05-23T02:13:43.223Z,94.90
2018-05-23T02:16:11.567Z,93.80
2018-05-23T02:18:40.713Z,94.20
2018-05-23T02:21:09.089Z,93.90
2018-05-23T02:23:37.440Z,94.40
2018-05-23T02:26:05.906Z,94.10
2018-05-23T02:28:35.009Z,94.30
2018-05-23T02:31:03.354Z,94.30
2018-05-23T02:33:31.739Z,93.40
2018-05-23T02:36:00.107Z,93.30
2018-05-23T02:38:28.595Z,94.20
2018-05-23T02:40:56.943Z,93.00
2018-05-23T02:43:25.304Z,94.50
2018-05-23T02:45:53.708Z,93.60
2018-05-23T02:48:22.084Z,94.20
2018-05-23T02:50:50.954Z,93.80
2018-05-23T02:53:19.293Z,93.70
2018-05-23T02:55:47.774Z,93.90
2018-05-23T02:58:16.999Z,93.30
2018-05-23T03:00:45.326Z,93.30
2018-05-23T03:03:13.696Z,94.70
2018-05-23T03:05:42.082Z,94.30
2018-05-23T03:08:10.474Z,94.70
2018-05-23T03:10:39.624Z,94.40
2018-05-23T03:13:08.033Z,94.40
2018-05-23T03:15:36.418Z,95.10
2018-05-23T03:18:05.547Z,96.30
2018-05-23T03:20:33.927Z,96.30
2018-05-23T03:23:02.334Z,96.20
2018-05-23T03:25:30.709Z,95.10
2018-05-23T03:27:59.076Z,95.40
2018-05-23T03:30:27.473Z,94.00
2018-05-23T03:32:55.826Z,92.90
2018-05-23T03:35:24.270Z,92.60
2018-05-23T03:37:53.377Z,92.20
2018-05-23T03:40:21.727Z,92.20
2018-05-23T03:42:50.876Z,92.50
2018-05-23T03:45:19.283Z,92.50
2018-05-23T03:47:47.650Z,92.20
2018-05-23T03:50:16.002Z,93.30
2018-05-23T03:52:44.405Z,92.90
2018-05-23T03:55:12.932Z,91.80
2018-05-23T03:57:41.265Z,91.90
2018-05-23T04:00:21.596Z,92.00
2018-05-23T04:03:01.822Z,92.70
2018-05-23T04:05:42.814Z,93.80
2018-05-23T04:08:11.196Z,93.80
2018-05-23T04:10:39.532Z,93.60
2018-05-23T04:13:08.256Z,93.80
2018-05-23T04:15:36.622Z,93.90
2018-05-23T04:18:04.992Z,92.90
2018-05-23T04:20:33.487Z,92.60
2018-05-23T04:23:01.843Z,94.20
2018-05-23T04:25:30.223Z,92.80
2018-05-23T04:27:59.354Z,94.80
2018-05-23T04:30:27.698Z,94.80
2018-05-23T04:32:56.085Z,94.30
2018-05-23T04:35:24.579Z,92.60
2018-05-23T04:37:52.954Z,93.20
2018-05-23T04:40:21.360Z,93.20
2018-05-23T04:42:49.794Z,93.30
2018-05-23T04:45:18.163Z,92.20
2018-05-23T04:47:47.294Z,93.50
2018-05-23T04:50:15.690Z,93.50
2018-05-23T04:52:44.053Z,92.70
2018-05-23T04:55:12.834Z,93.70
2018-05-23T04:57:41.186Z,93.30
2018-05-23T05:00:09.629Z,92.70
2018-05-23T05:02:38.012Z,93.90
2018-05-23T05:05:06.384Z,93.50
2018-05-23T05:07:34.782Z,94.10
2018-05-23T05:10:03.953Z,93.20
2018-05-23T05:12:32.329Z,93.20
2018-05-23T05:15:00.729Z,94.10
2018-05-23T05:17:29.855Z,93.90
2018-05-23T05:19:58.240Z,93.90
2018-05-23T05:22:26.647Z,92.60
2018-05-23T05:24:55.011Z,92.70
2018-05-23T05:27:23.422Z,92.40
2018-05-23T05:29:51.783Z,92.40
2018-05-23T05:32:20.159Z,92.00
2018-05-23T05:34:48.561Z,92.30
2018-05-23T05:37:16.936Z,92.30
2018-05-23T05:39:45.322Z,92.10
2018-05-23T05:42:13.692Z,91.80
2018-05-23T05:44:42.070Z,91.80
2018-05-23T05:47:10.448Z,92.60
2018-05-23T05:49:38.827Z,92.10
2018-05-23T05:52:07.197Z,91.10
2018-05-23T05:54:35.579Z,91.40
2018-05-23T05:57:03.950Z,90.40
2018-05-23T05:59:32.318Z,91.40
2018-05-23T06:02:00.749Z,90.30
2018-05-23T06:04:29.873Z,89.60
2018-05-23T06:06:58.244Z,89.60
2018-05-23T06:09:26.644Z,89.30
2018-05-23T06:11:55.020Z,89.50
2018-05-23T06:14:23.461Z,90.10
2018-05-23T06:16:51.843Z,89.20
2018-05-23T06:19:20.220Z,89.50
2018-05-23T06:21:48.614Z,88.60
2018-05-23T06:24:17.040Z,87.90
2018-05-23T06:26:45.421Z,88.40
2018-05-23T06:29:14.550Z,89.30
2018-05-23T06:31:43.026Z,89.30
2018-05-23T06:34:11.388Z,89.20
2018-05-23T06:36:40.504Z,90.90
2018-05-23T06:39:08.892Z,90.80
2018-05-23T06:41:37.311Z,88.00
2018-05-23T06:44:05.742Z,87.90
2018-05-23T06:46:34.077Z,87.60
2018-05-23T06:49:02.449Z,87.70
2018-05-23T06:51:30.826Z,88.30
2018-05-23T06:53:59.228Z,87.70
2018-05-23T06:56:28.330Z,86.00
2018-05-23T06:58:56.712Z,85.90
2018-05-23T07:01:25.089Z,85.70
2018-05-23T07:03:53.458Z,86.60
2018-05-23T07:06:22.622Z,84.80
2018-05-23T07:08:50.958Z,84.80
2018-05-23T07:11:19.303Z,85.80
2018-05-23T07:13:47.735Z,86.70
2018-05-23T07:16:16.318Z,87.00
2018-05-23T07:18:44.679Z,86.60
2018-05-23T07:21:13.055Z,83.70
2018-05-23T07:23:41.411Z,82.80
2018-05-23T07:26:09.797Z,82.70
2018-05-23T07:28:38.200Z,82.20
2018-05-23T07:31:06.575Z,82.00
2018-05-23T07:33:34.961Z,82.30
2018-05-23T07:36:04.032Z,81.70
2018-05-23T07:38:32.397Z,83.00
2018-05-23T07:41:00.755Z,84.00
2018-05-23T07:43:29.913Z,80.40
2018-05-23T07:45:58.296Z,80.40
2018-05-23T07:48:26.695Z,80.70
2018-05-23T07:50:55.918Z,81.50
2018-05-23T07:53:24.274Z,81.20
2018-05-23T07:55:53.427Z,80.90
2018-05-23T07:58:21.770Z,80.90
2018-05-23T08:00:50.247Z,84.70
2018-05-23T08:03:18.626Z,79.90
2018-05-23T08:05:46.993Z,81.00
2018-05-23T08:08:16.149Z,80.90
2018-05-23T08:10:44.498Z,81.00
2018-05-23T08:13:12.874Z,80.00
2018-05-23T08:15:41.235Z,78.70
2018-05-23T08:18:09.629Z,78.50
2018-05-23T08:20:37.991Z,80.00
2018-05-23T08:23:06.401Z,78.80
2018-05-23T08:25:34.793Z,80.40
2018-05-23T08:28:03.136Z,79.50
2018-05-23T08:30:32.752Z,78.80
2018-05-23T08:33:01.089Z,78.80
2018-05-23T08:35:30.224Z,77.00
2018-05-23T08:37:58.604Z,77.10
2018-05-23T08:40:26.966Z,75.30
2018-05-23T08:42:55.348Z,78.80
2018-05-23T08:45:23.694Z,77.60
2018-05-23T08:47:52.939Z,78.30
2018-05-23T08:50:21.313Z,78.10
2018-05-23T08:52:49.686Z,75.10
2018-05-23T08:55:18.073Z,79.40
2018-05-23T08:57:46.418Z,76.00
2018-05-23T09:00:15.684Z,73.90
2018-05-23T09:02:44.045Z,73.10
2018-05-23T09:05:12.414Z,74.00
2018-05-23T09:07:40.808Z,77.40
2018-05-23T09:10:09.156Z,75.60
2018-05-23T09:12:37.648Z,74.80
2018-05-23T09:15:05.985Z,71.20
2018-05-23T09:17:34.377Z,70.90
2018-05-23T09:20:02.779Z,74.30
2018-05-23T09:22:31.154Z,71.10
2018-05-23T09:24:59.862Z,75.20
2018-05-23T09:27:28.219Z,70.90
2018-05-23T09:29:56.585Z,71.20
2018-05-23T09:32:24.980Z,68.70
2018-05-23T09:34:53.398Z,73.20
2018-05-23T09:37:22.542Z,70.00
2018-05-23T09:39:50.904Z,69.90
2018-05-23T09:42:19.296Z,68.00
2018-05-23T09:44:47.647Z,71.10
2018-05-23T09:47:16.155Z,73.00
2018-05-23T09:49:44.519Z,68.50
2018-05-23T09:52:12.893Z,68.00
2018-05-23T09:54:41.270Z,65.40
2018-05-23T09:57:09.675Z,67.50
2018-05-23T09:59:38.032Z,66.80
2018-05-23T10:02:07.255Z,66.00
2018-05-23T10:04:35.653Z,65.30
2018-05-23T10:07:04.024Z,63.60
2018-05-23T10:09:32.636Z,65.00
2018-05-23T10:12:01.008Z,66.30
2018-05-23T10:14:30.191Z,65.30
2018-05-23T10:16:59.330Z,64.90
2018-05-23T10:19:27.814Z,64.90
2018-05-23T10:21:56.185Z,64.50
2018-05-23T10:24:24.556Z,65.90
2018-05-23T10:26:53.089Z,67.10
2018-05-23T10:29:21.468Z,66.90
2018-05-23T10:31:49.871Z,68.40
2018-05-23T10:34:19.132Z,64.40
2018-05-23T10:36:47.472Z,64.40
2018-05-23T10:39:15.839Z,64.50
2018-05-23T10:41:44.214Z,62.00
2018-05-23T10:44:12.579Z,62.90
2018-05-23T10:46:41.725Z,62.50
2018-05-23T10:49:10.076Z,62.40
2018-05-23T10:51:38.493Z,63.30
2018-05-23T10:54:07.656Z,67.20
2018-05-23T10:56:35.997Z,67.20
2018-05-23T10:59:05.144Z,63.80
2018-05-23T11:01:33.517Z,64.10
2018-05-23T11:04:01.965Z,63.30
2018-05-23T11:06:30.399Z,61.80
2018-05-23T11:08:58.850Z,62.20
2018-05-23T11:11:27.266Z,60.30
2018-05-23T11:13:55.664Z,65.50
2018-05-23T11:16:24.789Z,66.40
2018-05-23T11:18:53.148Z,66.40
2018-05-23T11:21:21.554Z,63.40
2018-05-23T11:23:49.934Z,63.50
2018-05-23T11:26:18.308Z,62.00
2018-05-23T11:28:46.668Z,63.40
2018-05-23T11:31:15.043Z,62.90
2018-05-23T11:33:43.408Z,61.20
2018-05-23T11:36:12.586Z,61.40
2018-05-23T11:38:41.752Z,61.70
2018-05-23T11:41:10.111Z,61.70
2018-05-23T11:43:38.515Z,60.60
2018-05-23T11:46:06.877Z,59.50
2018-05-23T11:48:35.236Z,59.30
2018-05-23T11:51:03.636Z,59.70
2018-05-23T11:53:32.013Z,61.80
2018-05-23T11:56:00.495Z,60.90
2018-05-23T11:58:28.846Z,60.30
2018-05-23T12:00:57.400Z,59.50
2018-05-23T12:03:26.981Z,64.20
2018-05-23T12:05:55.356Z,64.20
2018-05-23T12:08:24.528Z,58.70
2018-05-23T12:10:52.907Z,58.60
2018-05-23T12:13:21.280Z,59.00
2018-05-23T12:15:49.775Z,59.50
2018-05-23T12:18:18.132Z,57.40
2018-05-23T12:20:46.495Z,55.80
2018-05-23T12:23:14.881Z,56.90
2018-05-23T12:25:43.233Z,59.20
2018-05-23T12:28:12.041Z,56.50
2018-05-23T12:30:40.394Z,56.10
2018-05-23T12:33:09.809Z,55.70
2018-05-23T12:35:38.195Z,55.60
2018-05-23T12:38:06.560Z,54.00
2018-05-23T12:40:34.943Z,54.70
2018-05-23T12:43:03.279Z,54.70
2018-05-23T12:45:32.016Z,54.80
2018-05-23T12:48:00.389Z,55.90
2018-05-23T12:50:28.744Z,53.80
2018-05-23T12:52:57.154Z,54.00
2018-05-23T12:55:25.494Z,53.60
2018-05-23T12:57:54.621Z,55.70
2018-05-23T13:00:22.984Z,55.90
2018-05-23T13:02:51.342Z,52.80
2018-05-23T13:05:20.472Z,51.00
2018-05-23T13:07:48.855Z,51.00
2018-05-23T13:10:17.298Z,53.00
2018-05-23T13:12:46.515Z,50.90
2018-05-23T13:15:14.878Z,50.90
2018-05-23T13:17:43.247Z,52.70
2018-05-23T13:20:12.371Z,50.80
2018-05-23T13:22:40.755Z,50.80
2018-05-23T13:25:09.097Z,49.10
2018-05-23T13:27:38.347Z,50.40
2018-05-23T13:30:06.685Z,50.40
2018-05-23T13:32:35.040Z,50.90
2018-05-23T13:35:04.181Z,49.20
2018-05-23T13:37:32.532Z,49.30
2018-05-23T13:40:00.962Z,49.00
2018-05-23T13:42:29.321Z,48.10
2018-05-23T13:44:57.681Z,49.70
2018-05-23T13:47:26.058Z,49.70
2018-05-23T13:49:54.417Z,49.90
2018-05-23T13:52:22.818Z,50.60
2018-05-23T13:54:51.183Z,47.90
2018-05-23T13:57:19.563Z,48.70
2018-05-23T13:59:47.918Z,49.10
2018-05-23T14:02:17.108Z,49.90
2018-05-23T14:04:46.223Z,49.70
2018-05-23T14:07:14.571Z,49.70
2018-05-23T14:09:43.123Z,48.30
2018-05-23T14:12:12.187Z,50.10
2018-05-23T14:14:40.547Z,50.00
2018-05-23T14:17:08.916Z,48.40
2018-05-23T14:19:38.164Z,48.80
2018-05-23T14:22:07.294Z,48.70
2018-05-23T14:24:35.663Z,49.10
2018-05-23T14:27:04.232Z,49.50
2018-05-23T14:29:32.694Z,48.30
2018-05-23T14:32:01.070Z,50.30
2018-05-23T14:34:29.471Z,49.10
2018-05-23T14:36:59.270Z,48.90
2018-05-23T14:39:27.787Z,48.80
2018-05-23T14:41:56.938Z,48.80
2018-05-23T14:44:25.348Z,48.80
2018-05-23T14:46:54.060Z,49.80
2018-05-23T14:49:23.167Z,49.10
2018-05-23T14:51:51.542Z,49.10
2018-05-23T14:54:19.932Z,50.00
2018-05-23T14:56:48.287Z,49.70
2018-05-23T14:59:17.438Z,50.00
2018-05-23T15:01:45.787Z,50.00
2018-05-23T15:04:14.275Z,50.40
2018-05-23T15:06:42.632Z,51.90
2018-05-23T15:09:11.086Z,51.10
2018-05-23T15:11:40.227Z,50.20
2018-05-23T15:14:08.722Z,50.20
2018-05-23T15:16:37.062Z,50.10
2018-05-23T15:19:05.452Z,50.80
2018-05-23T15:21:33.844Z,51.40
2018-05-23T15:24:02.195Z,53.00
2018-05-23T15:26:30.578Z,50.60
2018-05-23T15:28:58.936Z,52.50
2018-05-23T15:31:28.108Z,52.80
2018-05-23T15:33:56.448Z,52.80
2018-05-23T15:36:24.864Z,51.20
2018-05-23T15:38:53.736Z,51.40
2018-05-23T15:41:22.124Z,49.40
2018-05-23T15:43:50.472Z,49.40
2018-05-23T15:46:18.964Z,51.00
2018-05-23T15:48:47.338Z,49.90
2018-05-23T15:51:15.746Z,50.70
2018-05-23T15:53:44.118Z,48.40
2018-05-23T15:56:12.510Z,49.50
2018-05-23T15:58:41.697Z,52.10
2018-05-23T16:01:10.064Z,52.10
2018-05-23T16:03:38.442Z,52.60
2018-05-23T16:06:07.160Z,48.30
2018-05-23T16:08:36.275Z,48.90
2018-05-23T16:11:04.637Z,48.90
2018-05-23T16:13:33.020Z,48.60
2018-05-23T16:16:01.429Z,49.10
2018-05-23T16:18:29.806Z,51.00
2018-05-23T16:20:58.161Z,49.30
2018-05-23T16:23:26.542Z,48.80
2018-05-23T16:25:54.916Z,47.40
2018-05-23T16:28:23.298Z,48.10
2018-05-23T16:30:51.668Z,48.40
2018-05-23T16:33:20.068Z,46.80
2018-05-23T16:35:48.445Z,47.80
2018-05-23T16:38:16.811Z,50.50
2018-05-23T16:40:45.197Z,48.30
2018-05-23T16:43:13.546Z,47.30
2018-05-23T16:45:42.068Z,47.50
2018-05-23T16:48:10.409Z,45.30
2018-05-23T16:50:38.823Z,45.20
2018-05-23T16:53:07.175Z,44.40
2018-05-23T16:55:35.549Z,43.30
2018-05-23T16:58:04.335Z,42.90
2018-05-23T17:00:32.699Z,43.10
2018-05-23T17:03:01.077Z,42.50
2018-05-23T17:05:30.215Z,43.90
2018-05-23T17:07:58.585Z,43.90
2018-05-23T17:10:27.051Z,42.70
2018-05-23T17:12:55.409Z,41.60
2018-05-23T17:15:23.772Z,44.40
2018-05-23T17:17:52.937Z,44.30
2018-05-23T17:20:21.274Z,44.20
2018-05-23T17:22:49.649Z,43.70
2018-05-23T17:25:17.993Z,41.90
2018-05-23T17:27:47.186Z,41.50
2018-05-23T17:30:16.311Z,40.20
2018-05-23T17:32:44.667Z,39.60
2018-05-23T17:35:13.796Z,41.50
2018-05-23T17:37:42.164Z,41.60
2018-05-23T17:40:10.648Z,41.90
2018-05-23T17:42:38.956Z,44.10
2018-05-23T17:45:07.339Z,40.70
2018-05-23T17:47:35.733Z,43.20
2018-05-23T17:50:04.106Z,45.30
2018-05-23T17:52:32.971Z,43.20
2018-05-23T17:55:01.332Z,41.80
2018-05-23T17:57:29.712Z,41.80
2018-05-23T17:59:58.109Z,44.50
2018-05-23T18:02:26.450Z,44.50
2018-05-23T18:04:54.818Z,43.50
2018-05-23T18:07:23.178Z,45.00
2018-05-23T18:09:52.340Z,48.60
2018-05-23T18:12:21.111Z,48.60
2018-05-23T18:14:49.472Z,50.80
2018-05-23T18:17:17.805Z,50.00
2018-05-23T18:19:46.193Z,52.00
2018-05-23T18:22:15.315Z,55.00
2018-05-23T18:24:43.691Z,54.90
2018-05-23T18:27:12.050Z,53.90
2018-05-23T18:29:41.756Z,60.50
2018-05-23T18:32:10.079Z,60.40
2018-05-23T18:34:38.414Z,59.90
2018-05-23T18:37:07.969Z,61.40
2018-05-23T18:39:36.342Z,61.20
2018-05-23T18:42:04.715Z,60.40
2018-05-23T18:44:33.194Z,60.70
2018-05-23T18:47:01.626Z,60.10
2018-05-23T18:49:30.015Z,59.70
2018-05-23T18:51:58.334Z,60.70
2018-05-23T18:54:27.285Z,62.60
2018-05-23T18:56:55.609Z,60.50
2018-05-23T18:59:23.963Z,61.20
2018-05-23T19:01:52.344Z,60.40
2018-05-23T19:04:20.695Z,63.00
2018-05-23T19:06:49.108Z,63.10
2018-05-23T19:09:17.468Z,65.40
2018-05-23T19:11:45.826Z,65.40
2018-05-23T19:14:14.932Z,66.20
2018-05-23T19:16:43.339Z,66.90
2018-05-23T19:19:11.690Z,66.70
2018-05-23T19:21:40.049Z,65.00
2018-05-23T19:24:09.196Z,64.90
2018-05-23T19:26:37.552Z,65.00
2018-05-23T19:29:06.089Z,67.20
2018-05-23T19:31:35.207Z,67.20
2018-05-23T19:34:03.585Z,67.00
2018-05-23T19:36:32.413Z,66.80
2018-05-23T19:39:00.775Z,66.30
2018-05-23T19:41:29.127Z,67.20
2018-05-23T19:43:57.520Z,68.70
2018-05-23T19:46:25.889Z,66.30
2018-05-23T19:48:54.273Z,66.60
2018-05-23T19:51:22.636Z,66.30
2018-05-23T19:53:52.663Z,69.30
2018-05-23T19:56:21.054Z,69.20
2018-05-23T19:58:49.485Z,69.60
2018-05-23T20:01:17.868Z,71.60
2018-05-23T20:03:47.489Z,70.20
2018-05-23T20:06:15.834Z,70.20
2018-05-23T20:08:44.208Z,71.40
2018-05-23T20:11:12.602Z,71.90
2018-05-23T20:13:41.755Z,71.50
2018-05-23T20:16:10.120Z,71.50
2018-05-23T20:18:38.501Z,71.00
2018-05-23T20:21:07.005Z,71.20
2018-05-23T20:23:35.376Z,71.90
2018-05-23T20:26:03.752Z,71.60
2018-05-23T20:28:32.129Z,71.40
2018-05-23T20:31:00.506Z,73.00
2018-05-23T20:33:29.021Z,72.30
2018-05-23T20:35:57.373Z,72.10
2018-05-23T20:38:25.724Z,74.70
2018-05-23T20:40:54.111Z,73.90
2018-05-23T20:43:22.472Z,73.00
2018-05-23T20:45:51.203Z,74.50
2018-05-23T20:48:19.576Z,74.40
2018-05-23T20:50:47.938Z,74.00
2018-05-23T20:53:16.329Z,72.00
2018-05-23T20:55:44.750Z,72.30
2018-05-23T20:58:13.438Z,73.90
2018-05-23T21:00:41.785Z,74.00
2018-05-23T21:03:10.119Z,71.70
2018-05-23T21:05:38.525Z,76.00
2018-05-23T21:08:06.912Z,75.80
2018-05-23T21:10:35.271Z,71.70
2018-05-23T21:13:03.707Z,73.20
2018-05-23T21:15:32.074Z,71.00
2018-05-23T21:18:01.176Z,71.70
2018-05-23T21:20:29.652Z,71.60
2018-05-23T21:22:58.823Z,71.10
2018-05-23T21:25:27.960Z,68.60
2018-05-23T21:27:56.444Z,68.40
2018-05-23T21:30:24.731Z,68.70
2018-05-23T21:32:53.155Z,69.00
2018-05-23T21:35:21.511Z,69.30
2018-05-23T21:37:49.876Z,68.10
2018-05-23T21:40:18.259Z,66.50
2018-05-23T21:42:46.634Z,68.20
2018-05-23T21:45:15.130Z,67.90
2018-05-23T21:47:43.502Z,67.70
2018-05-23T21:50:11.860Z,66.50
2018-05-23T21:52:40.258Z,66.90
2018-05-23T21:55:08.600Z,66.20
2018-05-23T21:57:36.982Z,67.40
2018-05-23T22:00:05.425Z,66.30
2018-05-23T22:02:34.543Z,69.30
2018-05-23T22:05:02.932Z,69.30
2018-05-23T22:07:32.064Z,69.50
2018-05-23T22:10:00.460Z,69.50
2018-05-23T22:12:28.822Z,67.60
2018-05-23T22:14:57.233Z,69.20
2018-05-23T22:17:26.351Z,68.30
2018-05-23T22:19:54.711Z,68.30
2018-05-23T22:22:23.112Z,70.50
2018-05-23T22:24:51.468Z,70.60
2018-05-23T22:27:19.822Z,70.80
2018-05-23T22:29:48.963Z,72.70
2018-05-23T22:32:17.336Z,72.00
2018-05-23T22:34:45.693Z,70.10
2018-05-23T22:37:14.084Z,71.20
2018-05-23T22:39:42.440Z,71.70
2018-05-23T22:42:11.583Z,72.20
2018-05-23T22:44:39.941Z,72.20
2018-05-23T22:47:08.303Z,71.80
2018-05-23T22:49:37.040Z,73.20
2018-05-23T22:52:05.383Z,73.80
2018-05-23T22:54:33.729Z,72.50
2018-05-23T22:57:02.882Z,70.50
2018-05-23T22:59:31.236Z,70.40
2018-05-23T23:01:59.618Z,72.50
2018-05-23T23:04:27.978Z,72.20
2018-05-23T23:06:56.383Z,71.10
2018-05-23T23:09:24.748Z,70.10
2018-05-23T23:11:53.104Z,70.50
2018-05-23T23:14:21.499Z,72.80
2018-05-23T23:16:49.842Z,72.80
2018-05-23T23:19:19.092Z,74.10
2018-05-23T23:21:47.456Z,74.10
2018-05-23T23:24:15.807Z,73.90
2018-05-23T23:26:44.221Z,72.40
2018-05-23T23:29:12.579Z,73.00
2018-05-23T23:31:40.961Z,74.00
2018-05-23T23:34:09.344Z,73.80
2018-05-23T23:36:37.835Z,72.10
2018-05-23T23:39:06.203Z,73.80
2018-05-23T23:41:34.538Z,74.50
2018-05-23T23:44:03.656Z,75.40
2018-05-23T23:46:32.014Z,75.40
2018-05-23T23:49:01.167Z,74.50
2018-05-23T23:51:29.561Z,74.50
2018-05-23T23:53:57.935Z,75.10
2018-05-23T23:56:26.315Z,76.80
2018-05-23T23:58:54.807Z,77.40
